Time;durP1;ratioP1;P1;durP2;ratioP2;P2;SDS_P1;SDS_P2;PMS_P1;PMS_P2;Temp;Humidity;BMP_temperature;BMP_pressure;BME280_temperature;BME280_humidity;BME280_pressure;Samples;Min_cycle;Max_cycle;Signal;HPM_P1;HPM_P2
2022/09/21 00:01:35;;;;;;;6.47;3.70;;;8.60;99.90;;;-141.84;79.35;18614.94;5072257;28;20256;-67
2022/09/21 00:04:04;;;;;;;4.13;3.50;;;8.60;99.90;;;-141.84;79.67;18588.53;5072202;28;20274;-66
2022/09/21 00:06:34;;;;;;;5.03;3.63;;;8.60;99.90;;;-141.84;79.91;18572.25;5071964;28;20236;-67
2022/09/21 00:09:04;;;;;;;4.13;3.67;;;8.60;99.90;;;-141.84;80.34;18574.28;5071994;28;20703;-66
2022/09/21 00:11:35;;;;;;;3.80;3.40;;;8.60;99.90;;;-141.84;80.85;18553.97;5071896;28;20220;-66
2022/09/21 00:14:09;;;;;;;6.17;3.63;;;8.50;99.90;;;-141.84;80.35;18558.03;5071716;28;20576;-66
2022/09/21 00:16:38;;;;;;;4.33;3.67;;;8.50;99.90;;;-141.84;79.76;18535.69;5071691;28;20232;-65
2022/09/21 00:19:08;;;;;;;5.37;4.30;;;8.50;99.90;;;-141.84;79.74;18517.41;5071924;28;20231;-66
2022/09/21 00:21:37;;;;;;;6.20;4.40;;;8.50;99.90;;;-141.84;80.24;18553.97;5071919;28;20228;-67
2022/09/21 00:24:07;;;;;;;5.30;4.80;;;8.50;99.90;;;-141.84;80.37;18513.34;5072524;28;20623;-66
2022/09/21 00:26:35;;;;;;;4.40;4.00;;;8.50;99.90;;;-141.84;80.43;18527.56;5071719;28;20284;-66
2022/09/21 00:29:04;;;;;;;5.70;4.50;;;8.50;99.90;;;-141.84;80.26;18537.72;5071893;28;20220;-65
2022/09/21 00:31:33;;;;;;;5.70;4.70;;;8.40;99.90;;;-141.84;81.26;18497.09;5071606;28;20225;-66
2022/09/21 00:34:02;;;;;;;5.50;4.53;;;8.40;99.90;;;-141.84;81.61;18468.66;5071459;28;20696;-67
2022/09/21 00:36:31;;;;;;;5.63;4.90;;;8.40;99.90;;;-141.84;81.91;18448.34;5071580;28;20205;-66
2022/09/21 00:39:02;;;;;;;6.53;4.47;;;8.30;99.90;;;-141.84;81.88;18452.41;5071837;28;20257;-66
2022/09/21 00:41:33;;;;;;;4.67;4.17;;;8.30;99.90;;;-141.84;81.81;18448.34;5071445;28;20228;-66
2022/09/21 00:44:27;;;;;;;5.37;4.37;;;8.30;99.90;;;-141.84;81.80;18484.91;5071306;28;20286;-67
2022/09/21 00:47:01;;;;;;;5.30;4.80;;;8.30;99.90;;;-141.84;82.25;18430.06;5071153;28;20719;-67
2022/09/21 00:49:30;;;;;;;5.37;4.83;;;8.30;99.90;;;-141.84;82.53;18438.19;5071601;28;20223;-66
2022/09/21 00:52:04;;;;;;;5.23;4.47;;;8.30;99.90;;;-141.84;82.31;18430.06;5071154;28;20277;-67
2022/09/21 00:54:40;;;;;;;5.80;4.53;;;8.20;99.90;;;-141.84;82.71;18448.34;5071293;28;20207;-67
2022/09/21 00:57:09;;;;;;;6.47;4.73;;;8.20;99.90;;;-141.84;83.07;18456.47;5072043;28;20189;-66
2022/09/21 00:59:39;;;;;;;5.17;4.50;;;8.20;99.90;;;-141.84;83.13;18405.66;5071178;28;20233;-67
2022/09/21 01:02:08;;;;;;;5.33;4.83;;;8.20;99.90;;;-141.84;83.33;18379.25;5071274;28;20236;-66
2022/09/21 01:04:38;;;;;;;6.23;5.63;;;8.20;99.90;;;-141.84;82.86;18407.69;5071202;28;20769;-65
2022/09/21 01:07:13;;;;;;;8.13;7.00;;;8.20;99.90;;;-141.84;82.34;18419.88;5070938;28;20777;-67
2022/09/21 01:09:44;;;;;;;7.73;7.03;;;8.20;99.90;;;-141.84;82.21;18411.75;5070988;28;20231;-66
2022/09/21 01:12:33;;;;;;;5.63;4.73;;;8.30;99.90;;;-141.84;82.15;18383.31;5071731;28;20186;-66
2022/09/21 01:15:28;;;;;;;5.67;4.70;;;8.20;99.90;;;-141.84;82.56;18373.16;5049502;28;20229;-66
2022/09/21 01:18:10;;;;;;;5.13;4.60;;;8.20;99.90;;;-141.84;82.52;18377.22;5051249;28;20677;-67
2022/09/21 01:21:19;;;;;;;5.37;4.87;;;8.20;99.90;;;-141.84;82.61;18413.78;5070320;28;20220;-66
2022/09/21 01:24:39;;;;;;;5.00;4.33;;;8.20;99.90;;;-141.84;82.29;18381.28;5051150;28;20229;-67
2022/09/21 01:27:57;;;;;;;5.70;4.90;;;8.20;99.90;;;-141.84;81.79;18369.09;5045806;28;20348;-66
2022/09/21 01:30:26;;;;;;;5.97;4.73;;;8.20;99.90;;;-141.84;82.11;18377.22;5055110;28;20688;-65
2022/09/21 01:33:04;;;;;;;4.97;4.47;;;8.20;99.90;;;-141.84;82.56;18356.91;5055466;28;20201;-67
2022/09/21 01:35:38;;;;;;;6.40;4.80;;;8.20;99.90;;;-141.84;82.91;18340.66;5055177;28;20241;-67
2022/09/21 01:38:13;;;;;;;6.47;5.40;;;8.30;99.90;;;-141.84;82.22;18365.03;5054956;28;20644;-65
2022/09/21 01:40:45;;;;;;;7.53;5.70;;;8.30;99.90;;;-141.84;82.05;18344.72;5055101;28;20273;-67
2022/09/21 01:43:24;;;;;;;7.40;6.73;;;8.20;99.90;;;-141.84;82.19;18326.44;5054846;28;20288;-66
2022/09/21 01:46:00;;;;;;;5.70;5.20;;;8.30;99.90;;;-141.84;82.96;18306.13;5054719;28;20221;-67
2022/09/21 01:48:35;;;;;;;7.47;6.07;;;8.20;99.90;;;-141.84;82.93;18326.44;5054775;28;20186;-67
2022/09/21 01:51:08;;;;;;;9.97;8.53;;;8.10;99.90;;;-141.84;83.03;18340.66;5055193;28;20185;-67
2022/09/21 01:53:43;;;;;;;9.53;8.00;;;8.10;99.90;;;-141.84;83.20;18322.38;5054530;28;20229;-66
2022/09/21 01:56:19;;;;;;;9.00;8.07;;;8.30;99.90;;;-141.84;82.87;18318.31;5054776;28;20228;-66
2022/09/21 01:58:59;;;;;;;9.57;7.50;;;8.10;99.90;;;-141.84;83.13;18316.28;5054621;28;20225;-65
2022/09/21 02:01:36;;;;;;;9.07;6.93;;;8.00;99.90;;;-141.84;82.76;18326.44;5054337;28;20588;-66
2022/09/21 02:04:11;;;;;;;7.50;6.33;;;8.00;99.90;;;-141.84;83.08;18318.31;5054697;28;20240;-66
2022/09/21 02:06:43;;;;;;;10.57;9.03;;;8.00;99.90;;;-141.84;83.12;18316.28;5054677;28;20224;-66
2022/09/21 02:09:12;;;;;;;8.43;6.27;;;8.00;99.90;;;-141.84;82.95;18265.50;5054842;28;20283;-67
2022/09/21 02:11:42;;;;;;;9.03;5.90;;;7.90;99.90;;;-141.84;83.06;18302.06;5054371;28;20236;-68
2022/09/21 02:14:15;;;;;;;6.93;6.10;;;7.90;99.90;;;-141.84;83.47;18298.00;5054279;28;20229;-66
2022/09/21 02:17:01;;;;;;;8.47;7.53;;;7.80;99.90;;;-141.84;83.31;18287.84;5054207;28;20229;-66
2022/09/21 02:19:40;;;;;;;6.63;5.67;;;7.80;99.90;;;-141.84;83.41;18269.56;5054473;28;20280;-67
2022/09/21 02:22:17;;;;;;;8.13;5.50;;;7.80;99.90;;;-141.84;83.86;18259.41;5053830;28;20298;-66
2022/09/21 02:24:51;;;;;;;6.93;6.23;;;7.70;99.90;;;-141.84;84.24;18247.22;5054117;28;20271;-66
2022/09/21 02:27:32;;;;;;;6.57;5.77;;;7.70;99.90;;;-141.84;84.37;18212.66;5054124;28;20602;-66
2022/09/21 02:30:08;;;;;;;5.90;5.40;;;7.70;99.90;;;-141.84;84.01;18235.00;5054511;28;20185;-67
2022/09/21 02:32:49;;;;;;;7.40;5.40;;;7.70;99.90;;;-141.84;84.19;18245.19;5053995;28;20225;-65
2022/09/21 02:35:31;;;;;;;5.93;5.30;;;7.70;99.90;;;-141.84;83.95;18243.16;5053828;28;20232;-66
2022/09/21 02:38:10;;;;;;;5.73;5.20;;;7.70;99.90;;;-141.84;84.41;18232.97;5053008;28;20229;-67
2022/09/21 02:40:47;;;;;;;9.20;5.67;;;7.60;99.90;;;-141.84;84.71;18216.72;5053913;28;20233;-66
2022/09/21 02:43:24;;;;;;;5.70;5.10;;;7.60;99.90;;;-141.84;84.57;18202.50;5053885;28;20255;-67
2022/09/21 02:45:59;;;;;;;5.97;5.37;;;7.60;99.90;;;-141.84;84.77;18196.41;5053629;28;20276;-67
2022/09/21 02:48:35;;;;;;;7.20;5.33;;;7.60;99.90;;;-141.84;84.65;18194.38;5053778;28;20616;-66
2022/09/21 02:51:09;;;;;;;7.30;5.37;;;7.60;99.90;;;-141.84;84.65;18194.38;5054237;28;20182;-67
2022/09/21 02:53:41;;;;;;;8.70;5.33;;;7.60;99.90;;;-141.84;84.57;18196.41;5053119;28;20232;-66
2022/09/21 02:56:13;;;;;;;6.80;5.77;;;7.60;99.90;;;-141.84;83.62;18232.97;5053572;28;20225;-66
2022/09/21 02:58:48;;;;;;;6.00;5.40;;;7.60;99.90;;;-141.84;83.07;18230.94;5053594;28;20280;-66
2022/09/21 03:01:19;;;;;;;6.47;5.87;;;7.60;99.90;;;-141.84;83.42;18232.97;5053459;28;20228;-66
2022/09/21 03:03:49;;;;;;;6.93;6.23;;;7.60;99.90;;;-141.84;83.51;18232.97;5053305;28;20213;-67
2022/09/21 03:06:17;;;;;;;6.10;5.50;;;7.60;99.90;;;-141.84;83.59;18208.59;5053548;28;20731;-66
2022/09/21 03:08:45;;;;;;;7.40;6.60;;;7.60;99.90;;;-141.84;83.43;18214.69;5053510;28;20574;-65
2022/09/21 03:11:17;;;;;;;6.63;6.00;;;7.60;99.90;;;-141.84;83.41;18222.81;5053353;28;20241;-67
2022/09/21 03:13:46;;;;;;;8.30;5.60;;;7.60;99.90;;;-141.84;83.89;18153.75;5053232;28;20248;-67
2022/09/21 03:16:15;;;;;;;7.03;6.30;;;7.50;99.90;;;-141.84;84.09;18182.19;5053196;28;20245;-66
2022/09/21 03:18:43;;;;;;;7.67;6.20;;;7.40;99.90;;;-141.84;84.60;18170.00;5052994;28;20569;-66
2022/09/21 03:21:13;;;;;;;11.47;10.37;;;7.40;99.90;;;-141.84;84.58;18192.34;5053473;28;20221;-67
2022/09/21 03:23:41;;;;;;;10.17;8.77;;;7.40;99.90;;;-141.84;84.57;18143.59;5052597;28;20283;-66
2022/09/21 03:26:09;;;;;;;8.87;6.83;;;7.40;99.90;;;-141.84;84.33;18188.28;5053137;28;20229;-65
2022/09/21 03:28:37;;;;;;;9.70;7.20;;;7.40;99.90;;;-141.84;84.58;18139.53;5052766;28;20229;-66
2022/09/21 03:31:06;;;;;;;7.13;6.43;;;7.40;99.90;;;-141.84;84.78;18180.16;5052632;28;20221;-65
2022/09/21 03:33:34;;;;;;;7.90;7.10;;;7.30;99.90;;;-141.84;84.58;18184.22;5052798;28;20209;-66
2022/09/21 03:36:03;;;;;;;8.73;6.67;;;7.40;99.90;;;-141.84;84.44;18157.81;5053280;28;20198;-66
2022/09/21 03:38:32;;;;;;;8.77;7.07;;;7.40;99.90;;;-141.84;84.22;18170.00;5052327;28;20233;-66
2022/09/21 03:41:00;;;;;;;9.10;6.87;;;7.40;99.90;;;-141.84;84.33;18159.84;5052577;28;20279;-66
2022/09/21 03:43:28;;;;;;;7.37;6.63;;;7.30;99.90;;;-141.84;84.43;18127.34;5052402;28;20243;-66
2022/09/21 03:45:56;;;;;;;9.67;7.00;;;7.30;99.90;;;-141.84;84.63;18135.47;5052613;28;20228;-67
2022/09/21 03:48:24;;;;;;;8.03;6.77;;;7.30;99.90;;;-141.84;84.53;18131.41;5052535;28;20198;-65
2022/09/21 03:50:53;;;;;;;8.30;7.47;;;7.30;99.90;;;-141.84;84.61;18157.81;5051931;28;20259;-67
2022/09/21 03:53:21;;;;;;;7.37;6.67;;;7.20;99.90;;;-141.84;84.90;18172.03;5052061;28;20228;-66
2022/09/21 03:55:50;;;;;;;8.47;6.87;;;7.20;99.90;;;-141.84;85.20;18119.22;5053822;28;20225;-67
2022/09/21 03:58:18;;;;;;;7.90;7.10;;;7.20;99.90;;;-141.84;85.61;18105.00;5052226;28;20229;-66
2022/09/21 04:00:46;;;;;;;9.33;6.60;;;7.20;99.90;;;-141.84;85.52;18119.22;5052162;28;20567;-66
2022/09/21 04:03:14;;;;;;;7.40;6.70;;;7.00;99.90;;;-141.84;85.50;18125.31;5052929;28;20322;-65
2022/09/21 04:05:42;;;;;;;7.37;6.53;;;7.20;99.90;;;-141.84;85.04;18135.47;5052567;28;20221;-66
2022/09/21 04:08:10;;;;;;;8.67;6.70;;;7.20;99.90;;;-141.84;85.29;18139.53;5051822;28;20238;-66
2022/09/21 04:10:41;;;;;;;7.93;7.20;;;7.20;99.90;;;-141.84;84.66;18157.81;5052005;28;20237;-65
2022/09/21 04:13:11;;;;;;;10.63;7.10;;;7.20;99.90;;;-141.84;84.27;18094.84;5052012;28;20601;-66
2022/09/21 04:15:39;;;;;;;7.03;6.33;;;7.20;99.90;;;-141.84;84.65;18111.09;5051492;28;20295;-66
2022/09/21 04:18:07;;;;;;;8.20;7.30;;;7.20;99.90;;;-141.84;84.88;18115.16;5052202;28;20212;-66
2022/09/21 04:20:35;;;;;;;10.73;9.43;;;7.10;99.90;;;-141.84;84.72;18090.78;5051653;28;20636;-66
2022/09/21 04:23:03;;;;;;;8.90;7.40;;;7.10;99.90;;;-141.84;84.83;18082.66;5051487;28;20229;-65
2022/09/21 04:25:32;;;;;;;7.97;6.70;;;7.20;99.90;;;-141.84;85.36;18100.94;5051850;28;20279;-65
2022/09/21 04:28:00;;;;;;;10.73;9.63;;;7.10;99.90;;;-141.84;85.29;18100.94;5051427;28;20229;-66
2022/09/21 04:30:30;;;;;;;9.37;8.47;;;7.10;99.90;;;-141.84;85.26;18102.97;5051451;28;20205;-66
2022/09/21 04:33:04;;;;;;;7.80;6.63;;;6.80;99.90;;;-141.84;85.33;18090.78;5052010;28;20634;-66
2022/09/21 04:35:32;;;;;;;12.17;9.23;;;7.00;99.90;;;-141.84;85.36;18076.56;5051268;28;20232;-67
2022/09/21 04:38:00;;;;;;;16.27;13.80;;;7.00;99.90;;;-141.84;85.27;18088.75;5051192;28;20225;-66
2022/09/21 04:40:28;;;;;;;17.13;15.40;;;6.90;99.90;;;-141.84;85.29;18070.47;5051445;28;20229;-66
2022/09/21 04:42:57;;;;;;;14.80;13.17;;;6.90;99.90;;;-141.84;84.99;18062.34;5051576;28;20604;-66
2022/09/21 04:45:25;;;;;;;22.80;20.50;;;7.00;99.90;;;-141.84;84.43;18070.47;5051022;28;20204;-67
2022/09/21 04:47:55;;;;;;;18.13;16.33;;;7.10;99.90;;;-141.84;83.93;18094.84;5051784;28;20678;-66
2022/09/21 04:50:23;;;;;;;14.17;12.73;;;7.00;99.90;;;-141.84;84.02;18088.75;5051184;28;20294;-67
2022/09/21 04:52:51;;;;;;;14.00;12.40;;;7.00;99.90;;;-141.84;84.37;18062.34;5051432;28;20238;-66
2022/09/21 04:55:19;;;;;;;14.10;12.70;;;7.00;99.90;;;-141.84;84.39;18090.78;5051222;28;20220;-67
2022/09/21 04:57:47;;;;;;;13.03;11.70;;;7.00;99.90;;;-141.84;84.00;18082.66;5051485;28;20636;-66
2022/09/21 05:00:16;;;;;;;13.30;11.27;;;7.00;99.90;;;-141.84;83.51;18082.66;5051453;28;20209;-66
2022/09/21 05:02:44;;;;;;;11.40;10.30;;;7.00;99.90;;;-141.84;83.87;18107.03;5051048;28;20229;-66
2022/09/21 05:05:14;;;;;;;11.73;9.80;;;7.00;99.90;;;-141.84;83.76;18096.88;5050888;28;20801;-66
2022/09/21 05:07:42;;;;;;;8.70;7.90;;;7.00;99.90;;;-141.84;84.17;18113.13;5051173;28;20229;-66
2022/09/21 05:10:10;;;;;;;8.07;7.23;;;7.00;99.90;;;-141.84;84.50;18070.47;5050826;28;20229;-67
2022/09/21 05:12:42;;;;;;;10.33;9.33;;;7.00;99.90;;;-141.84;84.38;18092.81;5051043;28;20304;-67
2022/09/21 05:15:11;;;;;;;9.50;8.40;;;7.00;99.90;;;-141.84;84.14;18100.94;5051438;28;20212;-66
2022/09/21 05:17:40;;;;;;;11.60;10.50;;;7.00;99.90;;;-141.84;83.89;18082.66;5050888;28;20233;-67
2022/09/21 05:20:10;;;;;;;14.17;11.90;;;7.10;99.90;;;-141.84;84.12;18064.38;5051001;28;20268;-66
2022/09/21 05:22:39;;;;;;;13.37;11.97;;;7.10;99.90;;;-141.84;84.26;18117.19;5050628;28;20229;-59
2022/09/21 05:25:10;;;;;;;17.83;16.00;;;7.10;99.90;;;-141.84;83.32;18098.91;5050929;28;20236;-60
2022/09/21 05:27:38;;;;;;;21.27;19.07;;;7.20;99.90;;;-141.84;83.09;18092.81;5050829;28;20233;-61
2022/09/21 05:30:08;;;;;;;15.60;14.00;;;7.20;99.90;;;-141.84;82.79;18131.41;5050846;28;20665;-61
2022/09/21 05:32:47;;;;;;;12.47;11.17;;;7.30;99.90;;;-141.84;82.52;18113.13;5050892;28;20232;-62
2022/09/21 05:35:29;;;;;;;15.83;11.87;;;7.30;99.90;;;-141.84;82.08;18115.16;5050784;28;20228;-59
2022/09/21 05:38:10;;;;;;;16.80;15.13;;;7.40;99.90;;;-141.84;81.94;18107.03;5050831;28;20275;-62
2022/09/21 05:40:38;;;;;;;20.00;17.90;;;7.40;99.90;;;-141.84;82.49;18115.16;5050637;28;20625;-60
2022/09/21 05:43:08;;;;;;;19.60;17.70;;;7.40;99.90;;;-141.84;83.09;18119.22;5051156;28;20254;-62
2022/09/21 05:45:43;;;;;;;20.30;18.13;;;7.30;99.90;;;-141.84;83.06;18127.34;5050638;28;20205;-60
2022/09/21 05:48:19;;;;;;;17.23;15.50;;;7.30;99.90;;;-141.84;82.68;18092.81;5051420;28;20204;-60
2022/09/21 05:50:59;;;;;;;16.50;14.57;;;7.30;99.90;;;-141.84;82.69;18139.53;5051000;28;20202;-61
2022/09/21 05:53:48;;;;;;;15.73;11.10;;;7.40;99.90;;;-141.84;82.42;18098.91;5050812;28;20236;-60
2022/09/21 05:56:36;;;;;;;11.10;9.50;;;7.30;99.90;;;-141.84;82.52;18125.31;5050577;28;20221;-60
2022/09/21 05:59:35;;;;;;;11.13;10.03;;;7.50;99.90;;;-141.84;81.91;18137.50;5050643;28;20233;-59
2022/09/21 06:02:15;;;;;;;10.17;9.00;;;7.40;99.90;;;-141.84;80.50;18161.88;5050190;28;20588;-60
2022/09/21 06:04:44;;;;;;;8.77;7.87;;;7.50;99.90;;;-141.84;80.47;18163.91;5050715;28;20231;-60
2022/09/21 06:07:12;;;;;;;10.00;8.40;;;7.60;99.90;;;-141.84;80.90;18184.22;5050324;28;20232;-61
2022/09/21 06:09:41;;;;;;;10.33;7.93;;;7.70;99.90;;;-141.84;80.34;18204.53;5043751;28;20226;-60
2022/09/21 06:12:10;;;;;;;8.33;7.40;;;8.00;99.90;;;-141.84;78.81;18228.91;5030872;28;20219;-59
2022/09/21 06:14:38;;;;;;;10.43;6.87;;;7.90;99.90;;;-141.84;77.44;18265.50;5033461;28;20241;-60
2022/09/21 06:17:06;;;;;;;8.87;7.03;;;8.00;99.90;;;-141.84;77.95;18269.56;5034391;28;20268;-60
2022/09/21 06:19:34;;;;;;;7.63;6.83;;;8.10;99.90;;;-141.84;77.81;18269.56;5034136;28;20638;-60
2022/09/21 06:22:02;;;;;;;8.40;7.50;;;8.10;99.90;;;-141.84;78.45;18257.38;5033839;28;20225;-60
2022/09/21 06:24:30;;;;;;;9.27;7.00;;;8.20;99.90;;;-141.84;78.18;18293.94;5034014;28;20256;-60
2022/09/21 06:27:00;;;;;;;6.97;6.27;;;8.20;99.90;;;-141.84;77.48;18310.19;5034577;28;20210;-60
2022/09/21 06:29:28;;;;;;;9.63;6.47;;;8.30;99.90;;;-141.84;78.38;18267.53;5034267;28;20226;-61
2022/09/21 06:31:56;;;;;;;7.40;6.60;;;8.40;99.90;;;-141.84;78.70;18283.78;5047506;28;20241;-61
2022/09/21 06:34:24;;;;;;;9.03;6.87;;;8.40;99.90;;;-141.84;78.07;18316.28;5053926;28;20222;-61
2022/09/21 06:36:52;;;;;;;9.00;6.47;;;8.50;99.90;;;-141.84;77.48;18302.06;5053933;28;20229;-59
2022/09/21 06:39:20;;;;;;;7.97;7.20;;;8.60;99.90;;;-141.84;76.98;18328.47;5054064;28;20201;-61
2022/09/21 06:41:48;;;;;;;8.37;7.57;;;8.80;99.90;;;-141.84;76.63;18373.16;5054283;28;20208;-60
2022/09/21 06:44:17;;;;;;;7.97;6.63;;;8.90;99.90;;;-141.84;77.18;18334.56;5053844;28;20241;-60
2022/09/21 06:46:45;;;;;;;8.90;6.90;;;9.00;99.90;;;-141.84;76.64;18379.25;5053420;28;20233;-60
2022/09/21 06:49:13;;;;;;;8.27;7.33;;;9.10;99.90;;;-141.84;76.58;18385.34;5053533;28;20236;-60
2022/09/21 06:51:41;;;;;;;8.07;6.63;;;9.10;99.90;;;-141.84;75.87;18383.31;5053464;28;20229;-59
2022/09/21 06:54:10;;;;;;;9.03;6.97;;;9.30;99.90;;;-141.84;75.12;18409.72;5053590;28;20616;-58
2022/09/21 06:56:38;;;;;;;7.57;6.33;;;9.40;99.90;;;-141.84;75.20;18397.53;5053482;28;20237;-59
2022/09/21 06:59:07;;;;;;;8.57;6.10;;;9.50;99.90;;;-141.84;75.30;18434.13;5053345;28;20300;-59
2022/09/21 07:01:36;;;;;;;7.53;6.10;;;9.50;99.90;;;-141.84;74.50;18454.44;5053094;28;20229;-61
2022/09/21 07:04:05;;;;;;;7.80;6.77;;;9.60;99.90;;;-141.84;73.10;18535.69;5053282;28;20233;-60
2022/09/21 07:06:33;;;;;;;9.60;6.73;;;9.70;99.90;;;-141.84;73.89;18493.03;5053286;28;20205;-60
2022/09/21 07:09:02;;;;;;;9.43;6.10;;;9.90;99.90;;;-141.84;73.88;18517.41;5053447;28;20213;-59
2022/09/21 07:11:50;;;;;;;8.40;6.43;;;9.90;99.90;;;-141.84;73.81;18517.41;5033045;28;20283;-59
2022/09/21 07:14:18;;;;;;;7.87;6.50;;;10.00;99.90;;;-141.84;73.13;18537.72;5049998;28;20221;-60
2022/09/21 07:16:47;;;;;;;7.40;5.97;;;10.10;99.90;;;-141.84;73.40;18551.94;5053073;28;20229;-59
2022/09/21 07:19:15;;;;;;;7.67;6.43;;;10.20;99.90;;;-141.84;73.00;18556.00;5053122;28;20264;-59
2022/09/21 07:21:43;;;;;;;6.70;5.97;;;10.30;99.90;;;-141.84;71.99;18610.88;5052758;28;20279;-60
2022/09/21 07:24:11;;;;;;;9.30;6.30;;;10.40;99.90;;;-141.84;71.86;18649.47;5052826;28;20232;-61
2022/09/21 07:26:39;;;;;;;7.97;6.47;;;10.50;99.90;;;-141.84;71.21;18651.50;5052817;28;20271;-62
2022/09/21 07:29:08;;;;;;;8.23;6.20;;;10.50;99.90;;;-141.84;70.46;18696.19;5052710;28;20596;-60
2022/09/21 07:31:36;;;;;;;7.03;6.33;;;10.70;99.90;;;-141.84;70.57;18726.69;5052681;28;20621;-60
2022/09/21 07:34:05;;;;;;;7.43;6.63;;;10.70;99.90;;;-141.84;70.48;18712.47;5052715;28;20261;-60
2022/09/21 07:36:33;;;;;;;8.13;6.40;;;10.80;99.90;;;-141.84;70.55;18708.41;5052830;28;20228;-60
2022/09/21 07:39:02;;;;;;;6.70;6.10;;;10.80;99.90;;;-141.84;69.85;18765.28;5053405;28;20209;-59
2022/09/21 07:41:30;;;;;;;8.03;6.20;;;10.90;99.90;;;-141.84;70.22;18769.34;5052819;28;20275;-60
2022/09/21 07:43:58;;;;;;;7.83;6.50;;;10.90;99.90;;;-141.84;69.75;18761.22;5052639;28;20244;-60
2022/09/21 07:46:26;;;;;;;8.10;6.47;;;11.00;99.90;;;-141.84;69.67;18789.66;5052603;28;20760;-60
2022/09/21 07:48:54;;;;;;;9.73;6.70;;;11.10;99.90;;;-141.84;69.67;18816.06;5052624;28;20228;-59
2022/09/21 07:51:24;;;;;;;8.17;7.00;;;11.20;99.90;;;-141.84;69.20;18848.59;5051842;28;20227;-62
2022/09/21 07:53:56;;;;;;;8.63;6.50;;;11.30;99.90;;;-141.84;69.32;18838.44;5052659;28;20208;-59
2022/09/21 07:56:25;;;;;;;11.67;6.67;;;11.40;99.90;;;-141.84;68.96;18887.19;5052760;28;20225;-61
2022/09/21 07:59:04;;;;;;;6.90;5.90;;;11.40;99.90;;;-141.84;68.94;18885.16;5052005;28;20278;-61
2022/09/21 08:01:35;;;;;;;7.50;6.33;;;11.50;99.90;;;-141.84;67.72;18940.03;5052185;28;20221;-59
2022/09/21 08:04:05;;;;;;;8.23;6.33;;;11.60;99.90;;;-141.84;67.84;18968.47;5051925;28;20605;-61
2022/09/21 08:06:38;;;;;;;8.87;6.43;;;11.70;99.90;;;-141.84;66.93;19039.59;5052458;28;20290;-58
2022/09/21 08:09:08;;;;;;;7.00;5.57;;;11.90;99.90;;;-141.84;67.09;19041.63;5052455;28;20236;-59
2022/09/21 08:11:37;;;;;;;7.07;6.00;;;12.00;99.90;;;-141.84;67.52;19021.31;5052133;28;20304;-59
2022/09/21 08:14:05;;;;;;;6.57;5.97;;;12.00;99.90;;;-141.84;67.05;19055.84;5052061;28;20244;-59
2022/09/21 08:16:34;;;;;;;7.60;6.17;;;12.10;99.90;;;-141.84;66.79;19072.09;5052227;28;20308;-60
2022/09/21 08:19:04;;;;;;;7.57;6.13;;;12.10;99.90;;;-141.84;66.09;19112.75;5052363;28;20291;-59
2022/09/21 08:21:32;;;;;;;7.80;6.20;;;12.20;99.90;;;-141.84;65.85;19167.59;5052095;28;20201;-60
2022/09/21 08:24:01;;;;;;;6.40;5.80;;;12.40;99.90;;;-141.84;65.35;19222.47;5052327;28;20229;-61
2022/09/21 08:26:29;;;;;;;8.53;5.73;;;12.40;99.90;;;-141.84;65.86;19206.22;5051877;28;20229;-59
2022/09/21 08:28:58;;;;;;;6.90;5.80;;;12.50;99.90;;;-141.84;65.53;19261.06;5051683;28;20221;-61
2022/09/21 08:31:26;;;;;;;8.10;5.70;;;12.80;99.90;;;-141.84;64.35;19358.63;5051503;28;20282;-59
2022/09/21 08:33:56;;;;;;;7.10;5.90;;;13.10;99.90;;;-141.84;63.29;19504.94;5051796;28;20240;-60
2022/09/21 08:36:24;;;;;;;8.20;5.57;;;13.30;99.90;;;-141.84;61.82;19606.53;5051270;28;20228;-60
2022/09/21 08:38:53;;;;;;;7.53;5.95;;;13.30;99.90;;;-141.84;61.85;19651.25;5052286;28;20230;-61
2022/09/21 08:41:35;;;;;;;6.15;5.32;;;13.40;99.90;;;-141.84;62.02;19665.47;5051926;28;20759;-59
2022/09/21 08:44:11;;;;;;;6.72;5.68;;;13.50;99.90;;;-141.84;61.77;19637.03;5051361;28;20242;-60
2022/09/21 08:46:43;;;;;;;6.65;5.63;;;13.60;99.90;;;-141.84;61.32;19716.28;5051699;28;20225;-60
2022/09/21 08:49:17;;;;;;;6.05;4.75;;;13.60;99.90;;;-141.84;61.57;19675.63;5051479;28;20229;-60
2022/09/21 08:51:52;;;;;;;7.78;5.57;;;13.60;99.90;;;-141.84;61.57;19681.75;5051594;28;20243;-61
2022/09/21 08:54:30;;;;;;;7.45;5.40;;;13.60;99.90;;;-141.84;60.52;19805.72;5051047;28;20185;-58
2022/09/21 08:56:59;;;;;;;6.93;5.38;;;13.70;99.90;;;-141.84;60.31;19846.34;5052147;28;20234;-60
2022/09/21 08:59:34;;;;;;;5.85;5.25;;;13.80;99.90;;;-141.84;60.04;19889.03;5051442;28;20224;-60
2022/09/21 09:02:31;;;;;;;5.68;4.93;;;13.90;99.90;;;-141.84;59.92;19952.03;5051207;28;20255;-60
2022/09/21 09:05:16;;;;;;;6.57;4.40;;;14.20;99.90;;;-141.84;57.73;20145.13;5051440;28;20236;-60
2022/09/21 09:08:07;;;;;;;11.73;5.18;;;14.70;99.90;;;-141.84;57.47;20200.00;5051411;28;20240;-59
2022/09/21 09:10:39;;;;;;;6.70;4.72;;;14.70;99.90;;;-141.84;56.40;20315.88;5051187;28;20240;-59
2022/09/21 09:13:30;;;;;;;7.72;4.70;;;15.20;99.90;;;-141.84;55.03;20405.31;5051396;28;20221;-61
2022/09/21 09:16:14;;;;;;;5.57;4.50;;;15.40;99.90;;;-141.84;54.91;20431.72;5051192;28;20259;-60
2022/09/21 09:18:51;;;;;;;12.27;5.55;;;15.50;99.90;;;-141.84;55.47;20358.56;5051212;28;20227;-59
2022/09/21 09:21:26;;;;;;;6.45;4.40;;;15.40;99.90;;;-141.84;55.47;20423.59;5051100;28;20588;-60
2022/09/21 09:24:06;;;;;;;7.70;4.22;;;15.40;99.90;;;-141.84;55.30;20409.38;5051405;28;20213;-60
2022/09/21 09:26:43;;;;;;;6.78;4.35;;;15.40;99.90;;;-141.84;54.13;20431.72;5051207;28;20229;-60
2022/09/21 09:29:24;;;;;;;6.30;4.60;;;15.40;99.90;;;-141.84;54.08;20484.56;5051108;28;20220;-59
2022/09/21 09:31:54;;;;;;;7.70;4.07;;;15.40;99.90;;;-141.84;54.47;20443.91;5050830;28;20225;-61
2022/09/21 09:34:30;;;;;;;9.65;4.55;;;15.40;99.90;;;-141.84;54.62;20431.72;5051014;28;20229;-62
2022/09/21 09:37:09;;;;;;;5.38;4.00;;;15.40;99.90;;;-141.84;55.60;20393.09;5051164;28;20240;-60
2022/09/21 09:39:40;;;;;;;7.70;4.30;;;15.40;99.90;;;-141.84;54.91;20411.41;5050788;28;20699;-59
2022/09/21 09:42:41;;;;;;;6.65;4.80;;;15.30;99.90;;;-141.84;55.19;20391.06;5051647;28;20236;-61
2022/09/21 09:45:33;;;;;;;7.35;3.70;;;15.10;99.90;;;-141.84;56.65;20273.19;5050933;28;20232;-61
2022/09/21 09:48:27;;;;;;;8.02;3.97;;;14.80;99.90;;;-141.84;56.17;20328.06;5051704;28;20224;-60
2022/09/21 09:50:55;;;;;;;5.78;3.58;;;14.70;99.90;;;-141.84;56.89;20350.41;5055196;28;20680;-60
2022/09/21 09:53:26;;;;;;;4.35;3.20;;;14.80;99.90;;;-141.84;55.78;20330.09;5054779;28;20225;-60
2022/09/21 09:55:56;;;;;;;5.75;3.10;;;14.90;99.90;;;-141.84;55.84;20362.63;5054454;28;20228;-59
2022/09/21 09:58:41;;;;;;;2.90;2.38;;;15.00;99.90;;;-141.84;55.61;20364.66;5054876;28;20217;-61
2022/09/21 10:01:40;;;;;;;3.60;2.30;;;15.10;99.90;;;-141.84;53.53;20484.56;5054296;28;20255;-61
2022/09/21 10:04:12;;;;;;;5.15;2.67;;;15.40;99.90;;;-141.84;53.39;20531.31;5054229;28;20295;-61
2022/09/21 10:06:41;;;;;;;7.28;3.25;;;15.60;99.90;;;-141.84;53.15;20559.78;5054515;28;20229;-60
2022/09/21 10:09:26;;;;;;;4.95;2.95;;;15.60;99.90;;;-141.84;53.72;20529.28;5054755;28;20241;-60
2022/09/21 10:12:00;;;;;;;3.80;3.33;;;15.60;99.90;;;-141.84;53.24;20630.94;5054388;28;20205;-60
2022/09/21 10:14:34;;;;;;;4.30;3.50;;;15.80;99.90;;;-141.84;53.22;20574.00;5054175;28;20225;-61
2022/09/21 10:17:07;;;;;;;4.85;3.60;;;15.90;99.90;;;-141.84;53.32;20618.72;5054147;28;20262;-58
2022/09/21 10:19:37;;;;;;;7.72;4.25;;;16.00;99.90;;;-141.84;52.33;20681.75;5054120;28;20221;-60
2022/09/21 10:22:05;;;;;;;5.70;3.90;;;16.10;99.90;;;-141.84;52.18;20683.78;5052790;28;20231;-59
2022/09/21 10:24:39;;;;;;;7.10;3.47;;;16.30;99.90;;;-141.84;52.30;20700.03;5033608;28;20740;-61
2022/09/21 10:27:14;;;;;;;5.20;3.28;;;16.30;99.90;;;-141.84;52.16;20720.38;5034478;28;20805;-60
2022/09/21 10:29:44;;;;;;;4.95;2.90;;;16.40;99.90;;;-141.84;52.25;20767.13;5034086;28;20206;-60
2022/09/21 10:32:24;;;;;;;4.03;2.30;;;16.60;99.90;;;-141.84;51.85;20822.03;5033852;28;20281;-60